createdAt,value
2023-02-26T00:05:38.319Z,0
2023-02-26T00:12:01.441Z,0
2023-02-26T00:18:21.416Z,0
2023-02-26T00:24:44.516Z,0
2023-02-26T00:31:04.471Z,0
2023-02-26T00:37:27.391Z,0
2023-02-26T00:43:47.343Z,0
2023-02-26T00:50:10.528Z,0
2023-02-26T00:56:30.352Z,0
2023-02-26T01:02:53.492Z,0
2023-02-26T01:09:13.439Z,0
2023-02-26T01:15:36.620Z,0
2023-02-26T01:21:56.328Z,0
2023-02-26T01:28:19.376Z,0
2023-02-26T01:34:39.360Z,0
2023-02-26T01:41:02.382Z,0
2023-02-26T01:47:22.333Z,0
2023-02-26T01:53:45.451Z,0
2023-02-26T02:00:05.396Z,0
2023-02-26T02:06:28.461Z,0
2023-02-26T02:12:48.374Z,0
2023-02-26T02:19:11.361Z,0
2023-02-26T02:25:31.368Z,0
2023-02-26T02:31:54.576Z,0
2023-02-26T02:38:14.491Z,0
2023-02-26T02:44:37.465Z,0
2023-02-26T02:50:57.554Z,0
2023-02-26T02:57:20.455Z,0
2023-02-26T03:03:40.406Z,0
2023-02-26T03:10:03.352Z,0
2023-02-26T03:16:23.797Z,0
2023-02-26T03:22:46.460Z,0
2023-02-26T03:29:06.419Z,0
2023-02-26T03:35:29.347Z,0
2023-02-26T03:41:49.453Z,0
2023-02-26T03:48:12.436Z,0
2023-02-26T03:54:32.408Z,0
2023-02-26T04:00:55.471Z,0
2023-02-26T04:25:12.776Z,0
2023-02-26T04:31:32.363Z,0
2023-02-26T04:37:55.548Z,0
2023-02-26T04:44:15.493Z,0
2023-02-26T04:50:38.463Z,0
2023-02-26T04:56:58.380Z,0
2023-02-26T05:03:21.436Z,0
2023-02-26T05:09:41.391Z,0
2023-02-26T05:16:04.487Z,0
2023-02-26T05:22:24.420Z,0
2023-02-26T05:28:47.429Z,0
2023-02-26T05:35:07.614Z,0
2023-02-26T05:41:30.384Z,0
2023-02-26T05:47:50.435Z,0
2023-02-26T05:54:13.492Z,0
2023-02-26T06:00:33.382Z,2
2023-02-26T06:06:56.397Z,5
2023-02-26T06:13:16.496Z,14
2023-02-26T06:19:39.531Z,33
2023-02-26T06:25:59.549Z,66
2023-02-26T06:32:22.605Z,111
2023-02-26T06:38:42.486Z,165
2023-02-26T06:45:06.431Z,216
2023-02-26T06:51:26.492Z,283
2023-02-26T06:57:49.431Z,351
2023-02-26T07:04:09.375Z,419
2023-02-26T07:10:32.403Z,482
2023-02-26T07:16:52.560Z,564
2023-02-26T07:23:15.344Z,630
2023-02-26T07:29:35.387Z,683
2023-02-26T07:35:58.484Z,706
2023-02-26T07:42:18.563Z,751
2023-02-26T07:48:41.574Z,681
2023-02-26T07:55:01.401Z,839
2023-02-26T08:01:24.549Z,648
2023-02-26T08:07:44.370Z,656
2023-02-26T08:14:07.417Z,767
2023-02-26T08:20:27.497Z,930
2023-02-26T08:26:50.348Z,933
2023-02-26T08:33:10.417Z,908
2023-02-26T08:39:33.467Z,1208
2023-02-26T08:45:53.351Z,1060
2023-02-26T08:52:16.923Z,1186
2023-02-26T08:58:36.454Z,911
2023-02-26T09:04:59.381Z,1165
2023-02-26T09:21:07.338Z,1155
2023-02-26T09:27:29.936Z,970
2023-02-26T09:33:52.339Z,2165
2023-02-26T09:40:12.363Z,3244
2023-02-26T09:46:35.356Z,2568
2023-02-26T09:52:55.480Z,1716
2023-02-26T09:59:18.458Z,2960
2023-02-26T10:05:38.389Z,1795
2023-02-26T10:12:01.374Z,2332
2023-02-26T10:18:21.368Z,2676
2023-02-26T10:24:44.389Z,1994
2023-02-26T10:31:04.494Z,1604
2023-02-26T10:37:27.385Z,1237
2023-02-26T10:43:47.424Z,2190
2023-02-26T10:50:10.370Z,5614
2023-02-26T10:56:30.430Z,2604
2023-02-26T11:02:53.347Z,2421
2023-02-26T11:09:13.378Z,2182
2023-02-26T11:15:36.515Z,1980
2023-02-26T11:21:56.437Z,1961
2023-02-26T11:28:19.410Z,1600
2023-02-26T11:34:39.417Z,2050
2023-02-26T11:41:02.412Z,5432
2023-02-26T11:47:22.422Z,4557
2023-02-26T11:53:45.371Z,7078
2023-02-26T12:00:05.417Z,6888
2023-02-26T12:06:28.448Z,2270
2023-02-26T12:12:48.369Z,2343
2023-02-26T12:19:11.462Z,1996
2023-02-26T12:25:31.407Z,2415
2023-02-26T12:31:54.514Z,6037
2023-02-26T12:38:15.354Z,1528
2023-02-26T12:44:37.446Z,2449
2023-02-26T12:50:57.560Z,3599
2023-02-26T12:57:20.421Z,2002
2023-02-26T13:03:40.450Z,2664
2023-02-26T13:10:03.392Z,2764
2023-02-26T13:16:23.434Z,2610
2023-02-26T13:22:46.433Z,6670
2023-02-26T13:29:06.683Z,3702
2023-02-26T13:35:29.405Z,2223
2023-02-26T13:41:49.422Z,1925
2023-02-26T13:48:12.458Z,2428
2023-02-26T13:54:32.445Z,3076
2023-02-26T14:00:55.424Z,5036
2023-02-26T14:07:15.388Z,2691
2023-02-26T14:13:38.423Z,1898
2023-02-26T14:37:14.909Z,4754
2023-02-26T14:43:34.318Z,2399
2023-02-26T14:49:57.363Z,2252
2023-02-26T14:56:17.389Z,1781
2023-02-26T15:02:40.360Z,1314
2023-02-26T15:09:00.379Z,4130
2023-02-26T15:15:23.383Z,4400
2023-02-26T15:21:43.366Z,2377
2023-02-26T15:28:06.357Z,1262
2023-02-26T15:34:26.373Z,2308
2023-02-26T15:40:49.425Z,1328
2023-02-26T15:47:09.762Z,1179
2023-02-26T15:53:32.530Z,1029
2023-02-26T15:59:52.428Z,905
2023-02-26T16:06:15.416Z,826
2023-02-26T16:12:35.414Z,759
2023-02-26T16:18:58.375Z,680
2023-02-26T16:25:18.408Z,617
2023-02-26T16:31:41.515Z,540
2023-02-26T16:38:01.335Z,452
2023-02-26T16:44:24.343Z,376
2023-02-26T16:50:44.423Z,289
2023-02-26T16:57:07.518Z,204
2023-02-26T17:03:27.469Z,131
2023-02-26T17:09:50.360Z,74
2023-02-26T17:16:10.413Z,36
2023-02-26T17:22:33.348Z,15
2023-02-26T17:28:53.447Z,5
2023-02-26T17:35:16.358Z,2
2023-02-26T17:41:36.367Z,1
2023-02-26T17:47:59.558Z,0
2023-02-26T17:54:19.569Z,0
2023-02-26T18:00:42.538Z,0
2023-02-26T18:07:02.434Z,0
2023-02-26T18:13:25.569Z,0
2023-02-26T18:19:45.350Z,0
2023-02-26T18:26:08.452Z,0
2023-02-26T18:32:28.646Z,0
2023-02-26T18:38:51.382Z,0
2023-02-26T18:45:11.546Z,0
2023-02-26T18:51:34.761Z,0
2023-02-26T18:57:54.401Z,0
2023-02-26T19:04:17.475Z,0
2023-02-26T19:10:37.334Z,0
2023-02-26T19:17:00.393Z,0
2023-02-26T19:33:08.177Z,0
2023-02-26T19:39:28.352Z,0
2023-02-26T19:45:51.484Z,0
2023-02-26T19:52:11.583Z,0
2023-02-26T19:58:34.326Z,0
2023-02-26T20:04:54.570Z,0
2023-02-26T20:11:17.389Z,0
2023-02-26T20:17:37.395Z,0
2023-02-26T20:24:00.406Z,0
2023-02-26T20:30:20.348Z,0
2023-02-26T20:36:43.333Z,0
2023-02-26T20:43:03.324Z,0
2023-02-26T20:49:27.301Z,0
2023-02-26T20:55:46.433Z,0
2023-02-26T21:02:09.353Z,0
2023-02-26T21:08:29.374Z,0
2023-02-26T21:14:52.357Z,0
2023-02-26T21:21:12.368Z,0
2023-02-26T21:27:35.442Z,0
2023-02-26T21:33:55.377Z,0
2023-02-26T21:40:18.379Z,0
2023-02-26T21:46:38.428Z,0
2023-02-26T21:53:01.463Z,0
2023-02-26T21:59:21.391Z,0
2023-02-26T22:05:44.426Z,0
2023-02-26T22:12:04.515Z,0
2023-02-26T22:18:27.391Z,0
2023-02-26T22:24:47.380Z,0
2023-02-26T22:31:10.480Z,0
2023-02-26T22:37:30.470Z,0
2023-02-26T22:43:54.045Z,0
2023-02-26T22:50:13.550Z,0
2023-02-26T22:56:36.386Z,0
2023-02-26T23:20:50.401Z,0
2023-02-26T23:27:10.344Z,0
2023-02-26T23:33:33.507Z,0
2023-02-26T23:39:53.438Z,0
2023-02-26T23:46:16.621Z,0
2023-02-26T23:52:36.477Z,0
2023-02-26T23:58:59.426Z,0
